createdAt,value
2022-12-17T00:00:57.941Z,10.72
2022-12-17T00:04:23.655Z,16.37
2022-12-17T00:07:48.170Z,13.05
2022-12-17T00:11:11.019Z,15.65
2022-12-17T00:14:35.455Z,12.43
2022-12-17T00:17:59.096Z,13.58
2022-12-17T00:21:30.457Z,13.90
2022-12-17T00:24:53.413Z,12.28
2022-12-17T00:28:19.214Z,9.13
2022-12-17T00:31:43.383Z,10.68
2022-12-17T00:35:07.931Z,12.13
2022-12-17T00:38:21.124Z,9.35
2022-12-17T00:41:43.870Z,14.95
2022-12-17T00:45:08.473Z,12.20
2022-12-17T00:48:33.508Z,9.48
2022-12-17T00:51:57.406Z,15.35
2022-12-17T00:55:21.342Z,12.30
2022-12-17T00:58:43.887Z,13.40
2022-12-17T01:02:09.772Z,10.88
2022-12-17T01:05:35.124Z,12.23
2022-12-17T01:08:58.504Z,17.80
2022-12-17T01:12:21.620Z,14.60
2022-12-17T01:15:47.350Z,21.05
2022-12-17T01:19:11.142Z,19.80
2022-12-17T01:22:35.145Z,13.53
2022-12-17T01:26:01.390Z,20.62
2022-12-17T01:29:26.871Z,13.80
2022-12-17T01:32:50.444Z,26.85
2022-12-17T01:36:15.124Z,18.67
2022-12-17T01:39:39.862Z,18.35
2022-12-17T01:43:12.609Z,31.20
2022-12-17T01:46:35.975Z,17.42
2022-12-17T01:49:59.191Z,15.55
2022-12-17T01:53:23.607Z,14.47
2022-12-17T01:56:31.473Z,27.40
2022-12-17T01:59:58.620Z,12.03
2022-12-17T02:03:25.140Z,20.68
2022-12-17T02:06:58.875Z,19.20
2022-12-17T02:10:45.468Z,21.57
2022-12-17T02:14:13.941Z,25.95
2022-12-17T02:17:39.166Z,20.27
2022-12-17T02:21:16.659Z,27.15
2022-12-17T02:24:46.265Z,21.55
2022-12-17T02:28:10.691Z,12.35
2022-12-17T02:31:19.699Z,22.58
2022-12-17T02:34:42.491Z,29.12
2022-12-17T02:38:06.393Z,19.85
2022-12-17T02:41:29.091Z,16.42
2022-12-17T02:44:54.528Z,17.20
2022-12-17T02:48:18.535Z,16.20
2022-12-17T02:51:42.682Z,15.65
2022-12-17T02:55:07.726Z,23.30
2022-12-17T02:58:32.881Z,16.23
2022-12-17T03:01:55.611Z,19.42
2022-12-17T03:05:43.887Z,23.50
2022-12-17T03:08:46.259Z,22.10
2022-12-17T03:12:10.136Z,17.42
2022-12-17T03:15:35.030Z,26.45
2022-12-17T03:18:55.610Z,21.95
2022-12-17T03:22:19.973Z,21.95
2022-12-17T03:25:44.700Z,27.00
2022-12-17T03:29:09.981Z,20.57
2022-12-17T03:32:33.542Z,28.60
2022-12-17T03:36:00.159Z,22.22
2022-12-17T03:39:23.653Z,26.50
2022-12-17T03:42:48.327Z,23.70
2022-12-17T03:46:12.714Z,20.68
2022-12-17T03:49:35.623Z,19.35
2022-12-17T03:52:58.328Z,22.42
2022-12-17T03:56:21.810Z,14.80
2022-12-17T03:59:45.534Z,23.20
2022-12-17T04:03:09.401Z,21.37
2022-12-17T04:09:54.147Z,18.90
2022-12-17T04:13:17.490Z,30.52
2022-12-17T04:16:42.772Z,22.90
2022-12-17T04:20:07.153Z,24.55
2022-12-17T04:23:30.729Z,21.25
2022-12-17T04:26:54.175Z,28.35
2022-12-17T04:30:19.641Z,25.65
2022-12-17T04:33:43.408Z,30.60
2022-12-17T04:37:07.634Z,52.17
2022-12-17T04:40:31.499Z,30.27
2022-12-17T04:43:59.667Z,33.75
2022-12-17T04:47:20.566Z,24.00
2022-12-17T04:50:43.826Z,20.50
2022-12-17T04:57:29.997Z,27.83
2022-12-17T05:00:53.359Z,19.82
2022-12-17T05:04:15.937Z,23.45
2022-12-17T05:07:38.559Z,16.80
2022-12-17T05:14:23.310Z,14.47
2022-12-17T05:17:47.077Z,23.02
2022-12-17T05:21:11.382Z,18.07
2022-12-17T05:24:37.908Z,18.45
2022-12-17T05:28:01.579Z,20.95
2022-12-17T05:31:27.458Z,17.52
2022-12-17T05:34:50.250Z,16.32
2022-12-17T05:38:04.580Z,16.12
2022-12-17T05:41:30.086Z,20.05
2022-12-17T05:44:53.938Z,17.17
2022-12-17T05:48:18.019Z,17.80
2022-12-17T05:51:41.853Z,18.70
2022-12-17T05:58:38.590Z,23.65
2022-12-17T06:02:00.890Z,29.63
2022-12-17T06:05:24.173Z,35.63
2022-12-17T06:08:47.278Z,30.85
2022-12-17T06:12:11.342Z,26.48
2022-12-17T06:15:34.789Z,80.25
2022-12-17T06:18:58.400Z,57.98
2022-12-17T06:22:24.973Z,78.78
2022-12-17T06:25:47.855Z,58.58
2022-12-17T06:29:12.060Z,52.60
2022-12-17T06:32:34.400Z,43.42
2022-12-17T06:35:59.952Z,35.70
2022-12-17T06:39:22.482Z,46.53
2022-12-17T06:46:09.555Z,43.17
2022-12-17T06:49:32.310Z,46.23
2022-12-17T06:52:58.062Z,32.85
2022-12-17T06:56:21.676Z,43.52
2022-12-17T06:59:44.285Z,41.77
2022-12-17T07:03:10.189Z,40.28
2022-12-17T07:06:34.641Z,35.35
2022-12-17T07:09:58.750Z,30.43
2022-12-17T07:13:22.057Z,32.67
2022-12-17T07:16:45.427Z,32.48
2022-12-17T07:20:09.080Z,31.50
2022-12-17T07:23:32.562Z,31.73
2022-12-17T07:26:55.000Z,40.50
2022-12-17T07:30:04.737Z,37.13
2022-12-17T07:33:34.437Z,33.00
2022-12-17T07:36:58.606Z,23.75
2022-12-17T07:40:22.302Z,19.52
2022-12-17T07:47:10.054Z,21.15
2022-12-17T07:50:32.721Z,16.30
2022-12-17T07:53:56.348Z,15.95
2022-12-17T08:00:47.553Z,13.98
2022-12-17T08:04:07.545Z,13.08
2022-12-17T08:07:31.539Z,18.52
2022-12-17T08:10:58.446Z,21.93
2022-12-17T08:14:22.131Z,16.17
2022-12-17T08:17:45.491Z,19.65
2022-12-17T08:21:09.633Z,23.52
2022-12-17T08:24:31.940Z,22.48
2022-12-17T08:27:55.835Z,18.37
2022-12-17T08:31:21.036Z,28.85
2022-12-17T08:34:45.014Z,20.27
2022-12-17T08:38:09.413Z,25.20
2022-12-17T08:41:33.754Z,19.25
2022-12-17T08:44:57.262Z,30.10
2022-12-17T08:51:47.343Z,21.90
2022-12-17T08:55:12.197Z,13.08
2022-12-17T08:58:35.404Z,15.55
2022-12-17T09:01:58.607Z,13.67
2022-12-17T09:05:25.462Z,21.40
2022-12-17T09:08:49.646Z,18.00
2022-12-17T09:12:14.114Z,25.17
2022-12-17T09:15:39.011Z,19.87
2022-12-17T09:19:02.057Z,26.77
2022-12-17T09:22:26.089Z,45.05
2022-12-17T09:25:52.477Z,31.75
2022-12-17T09:29:14.530Z,28.62
2022-12-17T09:32:38.675Z,26.75
2022-12-17T09:36:02.731Z,36.15
2022-12-17T09:39:26.601Z,38.78
2022-12-17T09:43:01.613Z,28.02
2022-12-17T09:46:33.702Z,44.05
2022-12-17T09:49:59.779Z,24.00
2022-12-17T09:53:23.902Z,63.50
2022-12-17T09:56:47.186Z,41.63
2022-12-17T10:00:10.812Z,36.25
2022-12-17T10:03:35.310Z,40.23
2022-12-17T10:06:59.015Z,47.25
2022-12-17T10:10:25.092Z,45.30
2022-12-17T10:13:51.496Z,53.08
2022-12-17T10:17:19.358Z,57.60
2022-12-17T10:21:11.914Z,42.15
2022-12-17T10:24:43.545Z,73.62
2022-12-17T10:28:06.421Z,36.23
2022-12-17T10:31:30.156Z,45.10
2022-12-17T10:34:52.571Z,54.60
2022-12-17T10:38:15.585Z,46.23
2022-12-17T10:41:50.622Z,40.23
2022-12-17T10:45:13.719Z,59.23
2022-12-17T10:48:38.872Z,42.95
2022-12-17T10:52:08.109Z,30.88
2022-12-17T10:55:34.582Z,35.38
2022-12-17T10:59:00.784Z,25.35
2022-12-17T11:02:30.124Z,34.00
2022-12-17T11:06:03.393Z,24.70
2022-12-17T11:09:27.700Z,35.28
2022-12-17T11:12:51.630Z,29.20
2022-12-17T11:16:32.639Z,35.00
2022-12-17T11:20:20.687Z,23.75
2022-12-17T11:23:51.635Z,39.88
2022-12-17T11:27:15.173Z,63.85
2022-12-17T11:30:48.094Z,58.87
2022-12-17T11:34:39.189Z,69.50
2022-12-17T11:38:10.630Z,48.73
2022-12-17T11:41:19.143Z,30.43
2022-12-17T11:45:01.040Z,32.17
2022-12-17T11:48:21.772Z,35.03
2022-12-17T11:52:03.756Z,24.87
2022-12-17T11:56:09.648Z,23.60
2022-12-17T12:00:13.017Z,18.65
2022-12-17T12:04:07.487Z,35.60
2022-12-17T12:08:02.358Z,49.27
2022-12-17T12:11:32.928Z,32.33
2022-12-17T12:15:12.382Z,44.05
2022-12-17T12:19:08.817Z,17.02
2022-12-17T12:22:53.106Z,17.17
2022-12-17T12:26:43.522Z,17.60
2022-12-17T12:30:35.640Z,31.42
2022-12-17T12:34:27.327Z,41.13
2022-12-17T12:37:51.099Z,42.58
2022-12-17T12:41:32.909Z,49.00
2022-12-17T12:45:35.563Z,52.87
2022-12-17T12:49:14.993Z,34.03
2022-12-17T12:52:41.894Z,62.95
2022-12-17T12:56:15.051Z,61.50
2022-12-17T12:59:55.194Z,68.17
2022-12-17T13:03:18.249Z,31.02
2022-12-17T13:06:23.920Z,33.08
2022-12-17T13:09:36.820Z,23.30
2022-12-17T13:12:51.772Z,16.07
2022-12-17T13:16:05.517Z,22.10
2022-12-17T13:19:20.729Z,27.55
2022-12-17T13:22:32.200Z,30.57
2022-12-17T13:25:38.172Z,44.30
2022-12-17T13:28:44.550Z,51.50
2022-12-17T13:32:00.867Z,66.55
2022-12-17T13:35:33.190Z,57.05
2022-12-17T13:39:00.145Z,51.42
2022-12-17T13:42:08.383Z,78.25
2022-12-17T13:45:15.626Z,70.17
2022-12-17T13:48:25.092Z,85.35
2022-12-17T13:51:36.123Z,98.03
2022-12-17T13:54:42.297Z,60.15
2022-12-17T13:57:48.536Z,56.20
2022-12-17T14:00:54.461Z,86.80
2022-12-17T14:04:10.700Z,62.90
2022-12-17T14:07:19.089Z,43.42
2022-12-17T14:10:31.075Z,52.65
2022-12-17T14:13:36.948Z,46.00
2022-12-17T14:16:47.455Z,39.73
2022-12-17T14:19:51.236Z,38.28
2022-12-17T14:22:58.884Z,38.28
2022-12-17T14:26:05.630Z,36.80
2022-12-17T14:29:11.582Z,39.95
2022-12-17T14:32:21.573Z,38.85
2022-12-17T14:35:45.222Z,46.90
2022-12-17T14:38:51.888Z,41.23
2022-12-17T14:42:16.003Z,42.45
2022-12-17T14:45:25.792Z,40.50
2022-12-17T14:48:34.505Z,39.70
2022-12-17T14:51:46.690Z,44.83
2022-12-17T14:54:52.960Z,36.85
2022-12-17T14:57:58.669Z,38.05
2022-12-17T15:01:19.007Z,40.52
2022-12-17T15:04:27.053Z,39.13
2022-12-17T15:07:40.693Z,35.90
2022-12-17T15:10:46.045Z,37.90
2022-12-17T15:13:56.294Z,34.75
2022-12-17T15:17:03.988Z,43.28
2022-12-17T15:20:09.650Z,39.35
2022-12-17T15:23:16.062Z,34.95
2022-12-17T15:26:24.274Z,35.75
2022-12-17T15:29:31.812Z,41.33
2022-12-17T15:32:37.807Z,40.00
2022-12-17T15:35:44.724Z,39.92
2022-12-17T15:38:50.741Z,47.62
2022-12-17T15:42:16.958Z,36.25
2022-12-17T15:45:26.220Z,45.63
2022-12-17T15:48:36.494Z,45.05
2022-12-17T15:51:43.326Z,42.45
2022-12-17T15:54:50.461Z,40.98
2022-12-17T15:57:57.433Z,48.30
2022-12-17T16:01:02.809Z,46.20
2022-12-17T16:04:16.789Z,48.28
2022-12-17T16:07:19.352Z,43.10
2022-12-17T16:10:26.329Z,51.08
2022-12-17T16:13:32.605Z,57.33
2022-12-17T16:16:39.688Z,47.65
2022-12-17T16:19:45.835Z,54.95
2022-12-17T16:22:52.810Z,49.38
2022-12-17T16:25:58.442Z,55.95
2022-12-17T16:29:03.067Z,52.55
2022-12-17T16:32:09.199Z,59.93
2022-12-17T16:35:15.359Z,56.02
2022-12-17T16:38:23.011Z,60.38
2022-12-17T16:41:28.451Z,52.55
2022-12-17T16:44:35.394Z,59.35
2022-12-17T16:47:41.039Z,49.05
2022-12-17T16:50:48.922Z,52.70
2022-12-17T16:53:55.453Z,59.50
2022-12-17T16:57:01.339Z,54.90
2022-12-17T17:00:06.755Z,51.37
2022-12-17T17:03:13.488Z,53.92
2022-12-17T17:06:22.178Z,51.18
2022-12-17T17:09:29.132Z,46.42
2022-12-17T17:12:34.502Z,46.48
2022-12-17T17:15:39.543Z,50.92
2022-12-17T17:18:47.431Z,54.40
2022-12-17T17:21:55.974Z,52.40
2022-12-17T17:25:01.657Z,58.63
2022-12-17T17:28:09.255Z,48.10
2022-12-17T17:31:15.915Z,46.68
2022-12-17T17:34:27.987Z,51.02
2022-12-17T17:37:36.467Z,49.42
2022-12-17T17:40:45.025Z,76.65
2022-12-17T17:43:51.342Z,49.63
2022-12-17T17:46:58.464Z,54.13
2022-12-17T17:50:08.614Z,51.65
2022-12-17T17:53:15.896Z,47.25
2022-12-17T17:56:25.447Z,44.08
2022-12-17T17:59:34.038Z,43.68
2022-12-17T18:02:41.048Z,42.83
2022-12-17T18:05:53.129Z,54.33
2022-12-17T18:08:58.562Z,46.08
2022-12-17T18:12:03.773Z,41.55
2022-12-17T18:15:15.896Z,43.70
2022-12-17T18:18:17.712Z,39.92
2022-12-17T18:21:26.387Z,41.92
2022-12-17T18:24:37.610Z,37.05
2022-12-17T18:27:44.833Z,40.00
2022-12-17T18:30:52.022Z,45.23
2022-12-17T18:34:00.170Z,39.95
2022-12-17T18:37:05.846Z,46.23
2022-12-17T18:40:11.423Z,42.83
2022-12-17T18:43:31.342Z,40.90
2022-12-17T18:46:37.128Z,37.90
2022-12-17T18:49:45.947Z,60.30
2022-12-17T18:52:51.510Z,41.37
2022-12-17T18:55:58.173Z,34.92
2022-12-17T18:59:06.431Z,34.80
2022-12-17T19:02:13.504Z,36.53
2022-12-17T19:05:19.500Z,32.75
2022-12-17T19:08:25.374Z,26.75
2022-12-17T19:11:37.933Z,33.35
2022-12-17T19:14:41.146Z,30.80
2022-12-17T19:17:50.077Z,35.78
2022-12-17T19:20:56.762Z,34.48
2022-12-17T19:24:03.521Z,36.55
2022-12-17T19:27:10.462Z,34.67
2022-12-17T19:30:19.597Z,37.10
2022-12-17T19:33:26.441Z,30.70
2022-12-17T19:36:34.534Z,37.30
2022-12-17T19:39:43.443Z,35.25
2022-12-17T19:42:48.391Z,32.38
2022-12-17T19:45:55.403Z,32.58
2022-12-17T19:49:03.571Z,37.48
2022-12-17T19:52:11.341Z,29.18
2022-12-17T19:55:16.378Z,61.02
2022-12-17T19:58:22.572Z,39.27
2022-12-17T20:01:33.786Z,35.70
2022-12-17T20:04:39.085Z,33.67
2022-12-17T20:07:45.481Z,34.73
2022-12-17T20:10:52.273Z,45.40
2022-12-17T20:14:01.109Z,40.50
2022-12-17T20:17:14.530Z,34.65
2022-12-17T20:20:21.560Z,36.25
2022-12-17T20:23:27.738Z,33.18
2022-12-17T20:26:35.273Z,28.70
2022-12-17T20:29:40.401Z,38.08
2022-12-17T20:32:46.414Z,30.75
2022-12-17T20:35:54.664Z,34.00
2022-12-17T20:39:00.940Z,30.57
2022-12-17T20:42:08.098Z,30.08
2022-12-17T20:45:14.461Z,24.43
2022-12-17T20:48:20.594Z,20.60
2022-12-17T20:51:30.155Z,20.88
2022-12-17T20:54:36.576Z,28.35
2022-12-17T20:57:41.521Z,37.88
2022-12-17T21:00:49.403Z,52.95
2022-12-17T21:03:56.564Z,59.55
2022-12-17T21:07:03.289Z,57.27
2022-12-17T21:10:11.539Z,53.52
2022-12-17T21:13:37.835Z,53.48
2022-12-17T21:16:45.532Z,36.23
2022-12-17T21:19:51.736Z,32.90
2022-12-17T21:22:57.714Z,23.70
2022-12-17T21:26:22.331Z,21.35
2022-12-17T21:29:28.187Z,20.37
2022-12-17T21:32:33.960Z,17.82
2022-12-17T21:35:42.588Z,15.43
2022-12-17T21:38:47.616Z,14.85
2022-12-17T21:41:56.585Z,13.55
2022-12-17T21:45:03.649Z,17.07
2022-12-17T21:48:14.153Z,16.15
2022-12-17T21:51:19.001Z,13.55
2022-12-17T21:54:26.284Z,13.13
2022-12-17T21:57:33.085Z,11.30
2022-12-17T22:00:38.007Z,10.98
2022-12-17T22:03:43.774Z,13.53
2022-12-17T22:06:58.442Z,14.60
2022-12-17T22:10:03.687Z,13.40
2022-12-17T22:13:08.599Z,12.15
2022-12-17T22:16:15.677Z,12.45
2022-12-17T22:19:24.494Z,11.18
2022-12-17T22:22:31.658Z,11.57
2022-12-17T22:25:38.365Z,11.40
2022-12-17T22:28:44.592Z,10.82
2022-12-17T22:32:09.308Z,10.00
2022-12-17T22:36:50.321Z,11.55
2022-12-17T22:41:27.939Z,12.85
2022-12-17T22:44:32.196Z,12.65
2022-12-17T22:45:08.139Z,11.93
2022-12-17T22:48:08.421Z,12.00
2022-12-17T22:51:28.282Z,13.13
2022-12-17T22:54:23.587Z,12.25
2022-12-17T22:57:36.229Z,14.83
2022-12-17T23:00:42.752Z,13.95
2022-12-17T23:03:48.477Z,12.58
2022-12-17T23:06:53.842Z,12.75
2022-12-17T23:09:59.265Z,11.28
2022-12-17T23:13:07.699Z,12.50
2022-12-17T23:16:13.875Z,12.07
2022-12-17T23:19:19.636Z,12.70
2022-12-17T23:22:25.897Z,12.65
2022-12-17T23:25:31.642Z,13.62
2022-12-17T23:28:36.596Z,12.98
2022-12-17T23:31:47.587Z,13.58
2022-12-17T23:34:53.374Z,13.32
2022-12-17T23:37:59.317Z,14.18
2022-12-17T23:41:05.556Z,11.53
2022-12-17T23:44:14.549Z,14.40
2022-12-17T23:47:21.927Z,15.93
2022-12-17T23:50:27.746Z,15.55
2022-12-17T23:53:33.510Z,15.03
2022-12-17T23:56:40.988Z,12.40
2022-12-17T23:59:46.930Z,11.60
